createdAt,value
2023-04-11T00:28:49.880Z,1.7
2023-04-11T00:58:50.702Z,1.7
2023-04-11T01:28:51.653Z,0.9
2023-04-11T01:58:52.627Z,1
2023-04-11T02:28:53.710Z,1
2023-04-11T02:58:55.825Z,1.1
2023-04-11T03:28:55.321Z,1.2
2023-04-11T03:58:56.083Z,1.1
2023-04-11T04:28:57.657Z,1.1
2023-04-11T04:58:58.922Z,1
2023-04-11T05:28:58.085Z,0.9
2023-04-11T05:59:02.702Z,1.3
2023-04-11T06:29:01.967Z,1.3
2023-04-11T06:59:03.027Z,1.5
2023-04-11T07:29:02.978Z,1.5
2023-04-11T07:59:03.017Z,1.6
2023-04-11T08:29:03.575Z,1.5
2023-04-11T08:59:04.791Z,1.7
2023-04-11T09:29:07.599Z,1.5
2023-04-11T09:59:08.591Z,1.1
2023-04-11T10:29:21.128Z,1.2
2023-04-11T10:59:12.471Z,1.1
2023-04-11T11:29:17.584Z,1.2
2023-04-11T11:59:18.924Z,1.5
2023-04-11T12:29:22.353Z,1.1
2023-04-11T12:59:21.961Z,1.1
2023-04-11T13:29:24.225Z,1
2023-04-11T13:59:29.878Z,1.1
2023-04-11T14:29:29.921Z,1.1
2023-04-11T14:59:32.798Z,1
2023-04-11T15:29:39.846Z,1
2023-04-11T15:59:38.163Z,0.8
2023-04-11T16:29:41.768Z,0.8
2023-04-11T16:59:44.438Z,0.6
2023-04-11T17:29:45.424Z,0.6
2023-04-11T17:59:47.117Z,0.7
2023-04-11T18:29:51.663Z,0.9
2023-04-11T18:59:50.633Z,1.6
2023-04-11T19:29:51.069Z,1.5
2023-04-11T19:59:52.545Z,1.4
2023-04-11T20:29:57.255Z,1.1
2023-04-11T20:59:56.809Z,1.3
2023-04-11T21:29:56.660Z,1.6
2023-04-11T21:59:58.008Z,1.7
2023-04-11T22:30:02.921Z,1.6
2023-04-11T23:00:03.026Z,2
2023-04-11T23:30:01.909Z,3
